Time;durP1;ratioP1;P1;durP2;ratioP2;P2;SDS_P1;SDS_P2;PMS_P1;PMS_P2;Temp;Humidity;BMP_temperature;BMP_pressure;BME280_temperature;BME280_humidity;BME280_pressure;Samples;Min_cycle;Max_cycle;Signal;HPM_P1;HPM_P2
2023/08/02 00:00:37;;;;;;;38.75;35.60;;;;;;;20.83;100.00;100156.50;5071092;28;20054;-81
2023/08/02 00:03:04;;;;;;;38.60;35.60;;;;;;;20.76;100.00;100154.16;5070974;28;20052;-81
2023/08/02 00:05:32;;;;;;;40.05;36.75;;;;;;;20.51;100.00;100160.56;5064217;28;20054;-82
2023/08/02 00:07:58;;;;;;;41.15;37.55;;;;;;;20.12;100.00;100156.91;5071465;28;20497;-82
2023/08/02 00:10:25;;;;;;;38.13;35.22;;;;;;;20.78;100.00;100155.44;5070962;28;20056;-82
2023/08/02 00:12:53;;;;;;;37.75;34.67;;;;;;;20.44;100.00;100160.91;5066091;28;20044;-86
2023/08/02 00:15:22;;;;;;;38.50;35.60;;;;;;;20.40;100.00;100159.09;5072161;28;20048;-82
2023/08/02 00:17:50;;;;;;;37.95;34.95;;;;;;;20.50;100.00;100167.88;5072195;28;20067;-82
2023/08/02 00:20:17;;;;;;;40.58;37.28;;;;;;;19.92;100.00;100167.84;5070778;28;20410;-82
2023/08/02 00:22:44;;;;;;;38.30;35.22;;;;;;;20.14;100.00;100170.88;5070288;28;20051;-82
2023/08/02 00:25:11;;;;;;;39.50;36.47;;;;;;;20.39;100.00;100171.75;5068388;28;20052;-81
2023/08/02 00:27:38;;;;;;;37.92;34.78;;;;;;;20.17;100.00;100174.13;5059465;28;20055;-82
2023/08/02 00:30:06;;;;;;;36.45;33.55;;;;;;;20.40;100.00;100173.38;5057791;28;20429;-86
2023/08/02 00:32:33;;;;;;;37.55;34.55;;;;;;;20.47;100.00;100176.53;5057953;28;20500;-86
2023/08/02 00:35:03;;;;;;;37.60;34.60;;;;;;;20.26;100.00;100172.41;5066432;28;20045;-82
2023/08/02 00:37:30;;;;;;;38.28;34.70;;;;;;;20.23;100.00;100173.78;5054578;28;20044;-86
2023/08/02 00:39:57;;;;;;;39.63;36.47;;;;;;;20.25;100.00;100162.72;5071559;28;20483;-82
2023/08/02 00:42:24;;;;;;;38.85;35.80;;;;;;;20.33;100.00;100173.72;5072176;28;20044;-86
2023/08/02 00:44:51;;;;;;;37.90;34.50;;;;;;;19.94;100.00;100164.84;5069017;28;20060;-82
2023/08/02 00:47:18;;;;;;;38.70;35.08;;;;;;;20.16;100.00;100164.44;5069895;28;20079;-82
2023/08/02 00:49:46;;;;;;;39.88;36.55;;;;;;;20.32;100.00;100164.00;5069885;28;20044;-82
2023/08/02 00:52:14;;;;;;;39.58;36.30;;;;;;;20.20;100.00;100163.56;5069424;28;20520;-82
2023/08/02 00:54:42;;;;;;;37.65;34.45;;;;;;;20.05;100.00;100156.41;5069660;28;20052;-82
2023/08/02 00:57:09;;;;;;;37.92;34.90;;;;;;;19.99;100.00;100170.22;5070233;28;20094;-82
2023/08/02 00:59:37;;;;;;;39.05;35.65;;;;;;;19.85;100.00;100168.16;5069873;28;20905;-82
2023/08/02 01:02:06;;;;;;;38.55;35.55;;;;;;;20.17;100.00;100168.72;5070495;28;20052;-82
2023/08/02 01:04:33;;;;;;;36.45;33.45;;;;;;;19.92;100.00;100157.06;5070131;28;20055;-82
2023/08/02 01:07:06;;;;;;;37.60;34.38;;;;;;;20.23;100.00;100154.91;5069913;28;20539;-83
2023/08/02 01:09:38;;;;;;;37.45;34.08;;;;;;;19.76;100.00;100163.63;5061932;28;20053;-82
2023/08/02 01:12:10;;;;;;;42.13;38.42;;;;;;;19.52;100.00;100163.50;5067017;28;20060;-82
2023/08/02 01:14:41;;;;;;;40.63;37.08;;;;;;;19.91;100.00;100158.16;5069580;28;20494;-81
2023/08/02 01:17:09;;;;;;;40.37;36.87;;;;;;;19.93;100.00;100158.66;5068108;28;20056;-82
2023/08/02 01:19:36;;;;;;;43.15;39.10;;;;;;;19.47;100.00;100160.84;5069539;28;20056;-82
2023/08/02 01:22:05;;;;;;;42.47;38.67;;;;;;;19.51;100.00;100164.56;5070090;28;20049;-82
2023/08/02 01:24:34;;;;;;;46.95;43.05;;;;;;;19.60;100.00;100155.63;5070068;28;20057;-83
2023/08/02 01:27:05;;;;;;;42.13;38.42;;;;;;;19.46;100.00;100162.75;5073940;28;20048;-83
2023/08/02 01:29:33;;;;;;;41.93;38.00;;;;;;;19.54;100.00;100154.06;5074673;28;20048;-82
2023/08/02 01:32:01;;;;;;;41.72;37.72;;;;;;;19.65;100.00;100160.22;5073808;28;20965;-82
2023/08/02 01:34:29;;;;;;;38.55;35.05;;;;;;;19.77;100.00;100155.28;5073615;28;20433;-82
2023/08/02 01:36:56;;;;;;;41.67;37.65;;;;;;;19.68;100.00;100160.47;5073501;28;20131;-82
2023/08/02 01:39:24;;;;;;;40.40;36.70;;;;;;;19.44;100.00;100146.84;5072212;28;20059;-83
2023/08/02 01:41:51;;;;;;;40.47;36.67;;;;;;;19.45;100.00;100153.84;5062213;28;20056;-82
2023/08/02 01:44:18;;;;;;;39.47;35.75;;;;;;;19.25;100.00;100153.16;5063792;28;20139;-82
2023/08/02 01:46:47;;;;;;;41.70;38.00;;;;;;;19.54;100.00;100154.06;5058481;28;20561;-86
2023/08/02 01:49:21;;;;;;;40.85;37.33;;;;;;;19.36;100.00;100160.09;5070313;28;20044;-87
2023/08/02 01:51:48;;;;;;;41.33;37.70;;;;;;;19.44;100.00;100156.81;5063169;28;20106;-86
2023/08/02 01:54:15;;;;;;;40.28;36.65;;;;;;;19.42;100.00;100148.19;5061080;28;20078;-82
2023/08/02 01:56:44;;;;;;;41.45;37.55;;;;;;;19.30;100.00;100153.91;5061024;28;20490;-82
2023/08/02 01:59:12;;;;;;;43.97;40.00;;;;;;;19.02;100.00;100155.41;5059616;28;20481;-82
2023/08/02 02:01:39;;;;;;;41.95;37.90;;;;;;;19.25;100.00;100153.16;5067149;28;20052;-87
2023/08/02 02:04:05;;;;;;;43.08;38.97;;;;;;;19.38;100.00;100156.03;5062284;28;20048;-87
2023/08/02 02:06:32;;;;;;;42.70;38.72;;;;;;;19.52;100.00;100164.31;5067228;28;20040;-82
2023/08/02 02:08:59;;;;;;;39.85;36.15;;;;;;;19.66;100.00;100157.22;5058408;28;20045;-87
2023/08/02 02:11:26;;;;;;;39.10;35.33;;;;;;;19.52;100.00;100147.34;5062252;28;20056;-82
2023/08/02 02:13:55;;;;;;;42.05;37.75;;;;;;;19.58;100.00;100157.81;5075723;28;20414;-83
2023/08/02 02:16:21;;;;;;;42.58;38.67;;;;;;;19.43;100.00;100153.31;5058661;28;20491;-82
2023/08/02 02:18:48;;;;;;;42.08;38.38;;;;;;;19.22;100.00;100166.09;5074114;28;20131;-82
2023/08/02 02:21:15;;;;;;;40.92;36.78;;;;;;;19.22;100.00;100162.59;5063968;28;20049;-86
2023/08/02 02:23:42;;;;;;;39.90;35.95;;;;;;;19.43;100.00;100157.91;5068265;28;20132;-82
2023/08/02 02:26:09;;;;;;;37.97;34.22;;;;;;;19.35;100.00;100158.47;5074394;28;20061;-86
2023/08/02 02:28:36;;;;;;;38.38;34.75;;;;;;;19.42;100.00;100158.97;5073990;28;20048;-82
2023/08/02 02:31:05;;;;;;;38.75;35.05;;;;;;;19.29;100.00;100167.66;5072117;28;20048;-82
2023/08/02 02:33:33;;;;;;;39.03;35.42;;;;;;;19.25;100.00;100166.63;5072635;28;20053;-82
2023/08/02 02:36:00;;;;;;;40.17;36.58;;;;;;;19.18;100.00;100167.72;5072154;28;20055;-82
2023/08/02 02:38:27;;;;;;;38.67;34.90;;;;;;;19.02;100.00;100171.53;5071924;28;20436;-82
2023/08/02 02:40:54;;;;;;;40.92;36.88;;;;;;;18.82;100.00;100166.22;5061000;28;20161;-82
2023/08/02 02:43:21;;;;;;;40.70;36.83;;;;;;;18.95;100.00;100176.44;5064636;28;20045;-82
2023/08/02 02:45:52;;;;;;;41.60;36.97;;;;;;;18.98;100.00;100173.97;5064714;28;20520;-86
2023/08/02 02:48:23;;;;;;;39.65;35.95;;;;;;;18.80;100.00;100168.41;5065441;28;20483;-82
2023/08/02 02:50:50;;;;;;;40.75;36.95;;;;;;;18.87;100.00;100172.41;5062831;28;20140;-82
2023/08/02 02:53:20;;;;;;;41.30;37.45;;;;;;;18.56;100.00;100166.28;5063097;28;20494;-86
2023/08/02 02:55:47;;;;;;;41.78;37.88;;;;;;;18.47;100.00;100165.22;5063321;28;20047;-82
2023/08/02 02:58:14;;;;;;;40.05;36.05;;;;;;;18.62;100.00;100159.00;5059723;28;20055;-86
2023/08/02 03:00:41;;;;;;;38.88;35.00;;;;;;;18.65;100.00;100161.94;5063333;28;20045;-85
2023/08/02 03:03:08;;;;;;;38.17;34.47;;;;;;;18.66;100.00;100170.81;5063246;28;20045;-86
2023/08/02 03:05:38;;;;;;;38.28;34.25;;;;;;;18.51;100.00;100156.31;5059028;28;20053;-81
2023/08/02 03:08:05;;;;;;;40.25;36.33;;;;;;;18.58;100.00;100161.44;5054202;28;20056;-81
2023/08/02 03:10:32;;;;;;;39.67;35.60;;;;;;;18.69;100.00;100160.31;5070400;28;20056;-81
2023/08/02 03:12:59;;;;;;;38.47;34.58;;;;;;;18.57;100.00;100170.56;5072030;28;20068;-82
2023/08/02 03:15:27;;;;;;;42.20;38.10;;;;;;;18.65;100.00;100172.72;5073171;28;20501;-81
2023/08/02 03:17:54;;;;;;;62.65;57.85;;;;;;;18.95;100.00;100177.22;5074057;28;20054;-85
2023/08/02 03:20:21;;;;;;;60.67;55.95;;;;;;;18.90;100.00;100171.06;5072344;28;20533;-83
2023/08/02 03:22:49;;;;;;;51.08;46.90;;;;;;;18.91;100.00;100165.41;5071579;28;20162;-82
2023/08/02 03:25:16;;;;;;;64.10;59.10;;;;;;;18.89;100.00;100167.56;5071689;28;20052;-82
2023/08/02 03:27:43;;;;;;;57.08;52.55;;;;;;;18.82;100.00;100172.44;5069521;28;20083;-82
2023/08/02 03:30:10;;;;;;;60.92;56.30;;;;;;;18.81;100.00;100173.50;5072188;28;20065;-82
2023/08/02 03:32:37;;;;;;;60.28;55.67;;;;;;;18.70;100.00;100161.16;5071356;28;20056;-85
2023/08/02 03:35:05;;;;;;;61.30;56.75;;;;;;;18.70;100.00;100156.56;5072999;28;20067;-81
2023/08/02 03:37:31;;;;;;;58.33;53.17;;;;;;;18.66;100.00;100165.44;5072389;28;20091;-83
2023/08/02 03:43:36;;;;;;;64.35;59.47;;;;;;;18.86;100.00;100176.19;5074096;28;20031;-86
2023/08/02 03:46:09;;;;;;;75.82;70.68;;;;;;;19.01;100.00;100180.72;5074187;28;20045;-86
2023/08/02 03:48:43;;;;;;;68.63;63.50;;;;;;;19.17;100.00;100178.75;5072958;28;20045;-86
2023/08/02 03:51:31;;;;;;;54.45;50.10;;;;;;;19.11;100.00;100174.47;5073751;28;20044;-86
2023/08/02 03:53:57;;;;;;;47.38;43.53;;;;;;;19.22;100.00;100176.84;5073678;28;20132;-86
2023/08/02 03:56:29;;;;;;;50.78;46.67;;;;;;;19.28;100.00;100179.53;5056517;28;20136;-86
2023/08/02 03:59:03;;;;;;;48.78;44.67;;;;;;;19.28;100.00;100183.03;5053603;28;20566;-86
2023/08/02 04:01:30;;;;;;;52.40;48.38;;;;;;;19.46;100.00;100181.59;5053774;28;20060;-86
2023/08/02 04:03:57;;;;;;;40.22;36.17;;;;;;;19.57;100.00;100180.41;5052491;28;20053;-86
2023/08/02 04:06:46;;;;;;;39.10;35.60;;;;;;;19.44;100.00;100194.50;5053677;28;20059;-86
2023/08/02 04:09:13;;;;;;;37.85;34.55;;;;;;;19.67;100.00;100182.31;5053629;28;20048;-86
2023/08/02 04:11:46;;;;;;;38.92;35.10;;;;;;;20.22;100.00;100185.66;5053780;28;20068;-86
2023/08/02 04:14:26;;;;;;;40.50;36.40;;;;;;;20.56;100.00;100177.53;5061700;28;20084;-86
2023/08/02 04:16:53;;;;;;;36.28;33.10;;;;;;;20.81;100.00;100178.34;5070563;28;20037;-86
2023/08/02 04:19:20;;;;;;;33.55;30.75;;;;;;;21.08;100.00;100180.47;5056120;28;20044;-82
2023/08/02 04:22:00;;;;;;;34.72;31.85;;;;;;;21.24;100.00;100181.09;5055015;28;20053;-86
2023/08/02 04:24:27;;;;;;;33.83;31.20;;;;;;;21.24;100.00;100171.09;5066539;28;20107;-82
2023/08/02 04:27:17;;;;;;;34.28;31.67;;;;;;;21.44;100.00;100170.03;5070859;28;20524;-86
2023/08/02 04:29:45;;;;;;;34.80;31.80;;;;;;;21.60;100.00;100167.91;5071593;28;20048;-86
2023/08/02 04:32:12;;;;;;;33.50;30.42;;;;;;;21.76;100.00;100168.53;5072080;28;20052;-84
2023/08/02 04:38:00;;;;;;;29.45;27.10;;;;;;;22.24;100.00;100160.22;5072936;28;20109;-82
2023/08/02 04:40:27;;;;;;;29.92;27.33;;;;;;;22.25;100.00;100159.09;5069468;28;20055;-81
2023/08/02 04:42:54;;;;;;;28.42;26.23;;;;;;;22.43;100.00;100162.03;5070435;28;20049;-82
2023/08/02 04:45:23;;;;;;;28.65;26.23;;;;;;;22.40;100.00;100156.13;5063328;28;20049;-82
2023/08/02 04:48:15;;;;;;;28.83;26.45;;;;;;;22.49;100.00;100167.06;5071678;28;20147;-86
2023/08/02 04:51:17;;;;;;;29.13;26.83;;;;;;;22.75;100.00;100167.34;5073127;28;20521;-85
2023/08/02 04:53:47;;;;;;;27.77;25.48;;;;;;;22.83;100.00;100152.34;5072617;28;20049;-86
2023/08/02 04:56:57;;;;;;;28.38;25.98;;;;;;;22.92;100.00;100149.72;5072611;28;20045;-87
2023/08/02 05:00:04;;;;;;;29.05;26.75;;;;;;;22.91;100.00;100154.34;5072534;28;20044;-86
2023/08/02 05:02:38;;;;;;;28.02;25.65;;;;;;;22.99;100.00;100147.44;5073377;28;20498;-86
2023/08/02 05:05:26;;;;;;;28.10;25.42;;;;;;;23.10;100.00;100156.97;5072443;28;20052;-86
2023/08/02 05:07:53;;;;;;;33.10;25.70;;;;;;;23.15;100.00;100154.16;5072793;28;20437;-86
2023/08/02 05:10:20;;;;;;;29.63;26.58;;;;;;;23.17;100.00;100151.13;5072966;28;20044;-87
2023/08/02 05:12:47;;;;;;;29.60;26.67;;;;;;;23.18;100.00;100147.31;5071831;28;20060;-86
2023/08/02 05:15:20;;;;;;;29.73;26.90;;;;;;;23.24;100.00;100148.81;5072950;28;20501;-86
2023/08/02 05:17:48;;;;;;;31.13;28.25;;;;;;;23.28;100.00;100142.47;5072483;28;20143;-85
2023/08/02 05:32:22;;;;;;;26.48;23.95;;;;;;;23.55;100.00;100155.16;4993580;28;20431;-93
2023/08/02 05:35:44;;;;;;;26.15;23.95;;;;;;;23.63;100.00;100163.66;4993533;28;20134;-91
2023/08/02 05:38:16;;;;;;;26.42;24.23;;;;;;;23.69;100.00;100160.56;4993354;28;20050;-91
2023/08/02 05:40:43;;;;;;;26.48;23.83;;;;;;;23.85;100.00;100161.00;4993387;28;20058;-92
2023/08/02 05:43:42;;;;;;;32.28;29.17;;;;;;;23.95;100.00;100154.53;4993264;28;20046;-91
2023/08/02 05:46:09;;;;;;;30.80;27.95;;;;;;;24.17;100.00;100154.50;4993937;28;20602;-83
2023/08/02 05:48:36;;;;;;;30.63;27.75;;;;;;;24.26;100.00;100159.97;4978257;28;20061;-82
2023/08/02 05:51:03;;;;;;;31.60;28.70;;;;;;;24.57;100.00;100156.47;4973308;28;20140;-83
2023/08/02 05:53:55;;;;;;;31.58;28.58;;;;;;;24.74;100.00;100151.13;4987747;28;20512;-91
2023/08/02 05:56:24;;;;;;;34.95;29.30;;;;;;;24.90;100.00;100160.47;4990196;28;20050;-82
2023/08/02 05:58:51;;;;;;;31.30;28.20;;;;;;;25.22;100.00;100149.53;4976360;28;20051;-91
2023/08/02 06:01:17;;;;;;;30.20;27.33;;;;;;;25.28;100.00;100149.03;4980368;28;20053;-83
2023/08/02 06:03:44;;;;;;;28.75;26.08;;;;;;;25.48;100.00;100144.13;4979762;28;20047;-82
2023/08/02 06:06:13;;;;;;;29.63;26.83;;;;;;;25.72;100.00;100152.59;4990197;28;20054;-90
2023/08/02 06:08:43;;;;;;;32.40;27.40;;;;;;;25.88;100.00;100143.97;4997304;28;20422;-91
2023/08/02 06:11:10;;;;;;;30.48;27.25;;;;;;;26.41;100.00;100150.84;4994548;28;20050;-83
2023/08/02 06:13:39;;;;;;;29.55;26.65;;;;;;;26.82;100.00;100141.25;4995700;28;20042;-92
2023/08/02 06:16:06;;;;;;;29.02;26.50;;;;;;;26.94;100.00;100128.53;4996046;28;20432;-83
2023/08/02 06:18:33;;;;;;;28.70;25.90;;;;;;;27.20;100.00;100137.69;4999417;28;20053;-83
2023/08/02 06:20:59;;;;;;;27.85;25.35;;;;;;;27.38;100.00;100133.69;4997141;28;20054;-82
2023/08/02 06:23:26;;;;;;;29.02;26.45;;;;;;;27.66;100.00;100128.50;4988198;28;20043;-91
2023/08/02 06:25:53;;;;;;;28.80;26.30;;;;;;;28.21;100.00;100137.44;4985655;28;20054;-91
2023/08/02 06:28:55;;;;;;;30.20;27.63;;;;;;;28.30;100.00;100132.69;4999186;28;20076;-90
2023/08/02 06:31:31;;;;;;;28.97;26.57;;;;;;;28.29;100.00;100134.63;4997934;28;20141;-90
2023/08/02 06:34:41;;;;;;;29.98;27.58;;;;;;;28.22;100.00;100130.84;4996175;28;20309;-90
2023/08/02 06:37:09;;;;;;;39.05;36.15;;;;;;;28.22;100.00;100147.22;4996348;28;20100;-91
2023/08/02 06:39:38;;;;;;;29.13;26.63;;;;;;;28.17;100.00;100129.16;4996073;28;20053;-92
2023/08/02 06:42:14;;;;;;;29.52;26.88;;;;;;;28.27;100.00;100139.63;4998188;28;20081;-92
2023/08/02 06:45:07;;;;;;;29.20;26.73;;;;;;;28.09;100.00;100143.69;5015775;28;20050;-92
2023/08/02 06:47:59;;;;;;;28.90;26.58;;;;;;;27.81;100.00;100147.00;4998026;28;20047;-88
2023/08/02 06:50:26;;;;;;;29.23;26.52;;;;;;;27.70;100.00;100143.06;4995747;28;20136;-91
2023/08/02 06:53:26;;;;;;;29.33;26.83;;;;;;;27.79;100.00;100145.75;4996073;28;20543;-90
2023/08/02 06:56:10;;;;;;;39.33;36.08;;;;;;;27.68;100.00;100152.69;4995575;28;20062;-90
2023/08/02 06:59:04;;;;;;;30.15;27.27;;;;;;;27.81;100.00;100157.91;4995708;28;20076;-91
2023/08/02 07:04:57;;;;;;;28.90;26.50;;;;;;;27.85;100.00;100163.50;4995746;28;20638;-90
2023/08/02 07:07:24;;;;;;;28.87;26.43;;;;;;;27.74;100.00;100154.88;4999084;28;20046;-84
2023/08/02 07:13:12;;;;;;;29.73;27.42;;;;;;;27.70;100.00;100166.81;4995513;28;20038;-93
2023/08/02 07:15:52;;;;;;;29.98;27.63;;;;;;;27.70;100.00;100175.00;4995660;28;20050;-90
2023/08/02 07:18:19;;;;;;;29.63;27.23;;;;;;;27.55;100.00;100173.69;4993531;28;20062;-92
2023/08/02 07:20:47;;;;;;;29.20;27.00;;;;;;;27.37;100.00;100184.69;4995230;28;20484;-90
2023/08/02 07:23:14;;;;;;;28.83;26.63;;;;;;;27.48;100.00;100187.06;4993890;28;20062;-91
2023/08/02 07:25:41;;;;;;;29.80;27.40;;;;;;;27.45;100.00;100188.50;4995655;28;20049;-90
2023/08/02 07:28:08;;;;;;;28.77;26.58;;;;;;;27.44;100.00;100180.66;4995389;28;20050;-90
2023/08/02 07:30:45;;;;;;;30.35;27.85;;;;;;;27.47;100.00;100190.88;4995196;28;20053;-92
2023/08/02 07:33:12;;;;;;;30.17;27.67;;;;;;;27.63;100.00;100191.91;4991582;28;20058;-91
2023/08/02 07:35:39;;;;;;;29.92;27.52;;;;;;;27.52;100.00;100196.16;4987151;28;20513;-83
2023/08/02 07:38:07;;;;;;;29.38;27.17;;;;;;;27.77;100.00;100188.88;4997181;28;20049;-91
2023/08/02 07:40:34;;;;;;;27.23;25.15;;;;;;;27.82;100.00;100194.19;4996337;28;20450;-83
2023/08/02 07:43:11;;;;;;;29.15;27.13;;;;;;;27.81;100.00;100198.06;4975622;28;20057;-91
2023/08/02 07:45:53;;;;;;;30.25;28.05;;;;;;;27.81;100.00;100203.50;4975634;28;20435;-91
2023/08/02 07:48:21;;;;;;;28.40;26.30;;;;;;;27.79;100.00;100198.38;4975452;28;20055;-88
2023/08/02 07:50:47;;;;;;;28.95;26.45;;;;;;;28.02;100.00;100192.53;4975373;28;20057;-91
2023/08/02 07:56:42;;;;;;;28.83;26.38;;;;;;;28.23;100.00;100185.13;4975244;28;20065;-91
2023/08/02 07:59:09;;;;;;;29.17;26.63;;;;;;;28.06;100.00;100185.28;4975078;28;20047;-92
2023/08/02 08:05:06;;;;;;;26.70;24.60;;;;;;;28.02;100.00;100198.00;4975519;28;20081;-91
2023/08/02 08:08:01;;;;;;;27.25;25.00;;;;;;;27.96;100.00;100193.88;4975223;28;20141;-90
2023/08/02 08:14:11;;;;;;;27.88;25.48;;;;;;;28.35;100.00;100192.50;4991924;28;20077;-83
2023/08/02 08:16:38;;;;;;;28.95;26.63;;;;;;;28.55;100.00;100185.41;4993052;28;20050;-83
2023/08/02 08:19:05;;;;;;;27.10;25.00;;;;;;;28.47;100.00;100191.78;4995061;28;20042;-82
2023/08/02 08:21:32;;;;;;;27.85;24.88;;;;;;;28.25;100.00;100188.28;4993466;28;20052;-83
2023/08/02 08:23:59;;;;;;;28.52;26.23;;;;;;;28.45;100.00;100183.16;4996581;28;20050;-83
2023/08/02 08:26:26;;;;;;;28.67;26.20;;;;;;;28.73;100.00;100183.28;4994179;28;20126;-83
2023/08/02 08:28:53;;;;;;;28.10;25.80;;;;;;;29.51;100.00;100179.44;4992173;28;20061;-83
2023/08/02 08:31:21;;;;;;;27.90;25.67;;;;;;;29.57;100.00;100182.75;4994093;28;20508;-83
2023/08/02 08:33:48;;;;;;;26.95;24.45;;;;;;;29.92;100.00;100193.13;4997273;28;20054;-83
2023/08/02 08:36:15;;;;;;;27.42;25.30;;;;;;;29.52;100.00;100194.72;4990986;28;20057;-82
2023/08/02 08:38:42;;;;;;;26.38;23.98;;;;;;;28.55;100.00;100169.03;4993816;28;20420;-83
2023/08/02 08:41:14;;;;;;;28.13;25.83;;;;;;;29.29;100.00;100191.72;4992279;28;20058;-83
2023/08/02 08:43:41;;;;;;;28.83;26.58;;;;;;;29.44;100.00;100193.72;4994353;28;20039;-83
2023/08/02 08:46:08;;;;;;;26.88;24.98;;;;;;;29.26;100.00;100180.63;4997798;28;20081;-83
2023/08/02 08:48:38;;;;;;;29.23;26.27;;;;;;;29.60;100.00;100188.31;4993582;28;20042;-83
2023/08/02 08:51:06;;;;;;;28.50;26.00;;;;;;;29.69;100.00;100185.47;4995013;28;20057;-85
2023/08/02 08:53:35;;;;;;;27.88;25.80;;;;;;;29.07;100.00;100182.03;4994557;28;20627;-83
2023/08/02 08:56:03;;;;;;;38.35;35.55;;;;;;;29.71;100.00;100191.38;4990909;28;20405;-83
2023/08/02 08:58:32;;;;;;;40.40;37.25;;;;;;;29.64;100.00;100188.44;4995368;28;20053;-83
2023/08/02 09:01:00;;;;;;;40.63;37.70;;;;;;;29.76;100.00;100190.34;4996523;28;20053;-84
2023/08/02 09:03:27;;;;;;;45.47;42.30;;;;;;;29.73;100.00;100186.34;4995440;28;20050;-82
2023/08/02 09:05:59;;;;;;;50.33;46.83;;;;;;;30.02;100.00;100192.63;4993118;28;20519;-84
2023/08/02 09:08:26;;;;;;;45.17;41.72;;;;;;;30.09;100.00;100196.34;4992858;28;20047;-83
2023/08/02 09:10:53;;;;;;;44.03;40.83;;;;;;;30.58;100.00;100201.56;4994838;28;20053;-83
2023/08/02 09:13:24;;;;;;;38.92;36.03;;;;;;;30.54;100.00;100200.69;4994976;28;20120;-84
2023/08/02 09:16:07;;;;;;;39.75;37.05;;;;;;;30.45;100.00;100204.75;4993636;28;20056;-82
2023/08/02 09:18:38;;;;;;;38.92;36.13;;;;;;;30.23;100.00;100195.16;4990899;28;20054;-83
2023/08/02 09:21:08;;;;;;;36.10;33.60;;;;;;;30.56;100.00;100187.44;4992998;28;20423;-84
2023/08/02 09:23:35;;;;;;;36.50;33.90;;;;;;;30.60;100.00;100189.47;4993139;28;20061;-84
2023/08/02 09:26:13;;;;;;;29.50;27.10;;;;;;;30.78;100.00;100197.00;4995835;28;20058;-83
2023/08/02 09:28:39;;;;;;;26.95;24.63;;;;;;;30.57;100.00;100190.97;4992203;28;20046;-83
2023/08/02 09:31:17;;;;;;;27.35;24.95;;;;;;;31.34;100.00;100187.69;4992966;28;20050;-83
2023/08/02 09:33:51;;;;;;;26.35;24.15;;;;;;;29.80;100.00;100191.22;4992279;28;20054;-84
2023/08/02 09:36:28;;;;;;;30.35;27.95;;;;;;;31.01;100.00;100186.16;4997640;28;20526;-90
2023/08/02 09:39:01;;;;;;;31.73;29.05;;;;;;;31.07;100.00;100189.41;4998492;28;20054;-84
2023/08/02 09:41:29;;;;;;;29.83;27.13;;;;;;;31.16;100.00;100189.22;4983942;28;20050;-90
2023/08/02 09:43:57;;;;;;;28.88;26.48;;;;;;;31.40;100.00;100194.50;4992508;28;20053;-90
2023/08/02 09:47:15;;;;;;;29.02;26.42;;;;;;;31.22;100.00;100190.53;4994986;28;20047;-92
2023/08/02 09:53:50;;;;;;;27.35;25.15;;;;;;;31.68;100.00;100191.56;4980703;28;20109;-92
2023/08/02 09:56:19;;;;;;;26.85;24.75;;;;;;;31.61;100.00;100185.13;4996861;28;20050;-89
2023/08/02 10:02:41;;;;;;;24.90;22.80;;;;;;;31.66;100.00;100185.63;4996994;28;20104;-90
2023/08/02 10:08:32;;;;;;;28.70;26.40;;;;;;;32.03;100.00;100176.16;4996764;28;20121;-91
2023/08/02 10:11:01;;;;;;;27.95;25.55;;;;;;;32.48;100.00;100178.16;4997062;28;20141;-87
2023/08/02 10:13:39;;;;;;;27.05;24.63;;;;;;;32.13;100.00;100181.84;4996847;28;20053;-86
2023/08/02 10:16:24;;;;;;;25.88;23.88;;;;;;;32.56;100.00;100179.09;4996703;28;20129;-87
2023/08/02 10:19:03;;;;;;;25.80;23.67;;;;;;;32.10;100.00;100187.28;4996781;28;20052;-90
2023/08/02 10:21:33;;;;;;;25.55;23.65;;;;;;;32.31;100.00;100189.63;4985676;28;20145;-89
2023/08/02 10:24:01;;;;;;;25.23;23.42;;;;;;;31.45;100.00;100176.97;4992963;28;20542;-87
2023/08/02 10:26:47;;;;;;;25.92;23.83;;;;;;;32.05;100.00;100182.09;4996426;28;20050;-89
2023/08/02 10:29:16;;;;;;;26.67;24.58;;;;;;;31.99;100.00;100186.31;4982030;28;20516;-82
2023/08/02 10:31:43;;;;;;;26.92;24.73;;;;;;;30.33;100.00;100181.75;4986804;28;20069;-84
2023/08/02 10:34:44;;;;;;;25.63;23.67;;;;;;;32.65;100.00;100173.31;4996865;28;20427;-83
2023/08/02 10:37:11;;;;;;;25.80;23.80;;;;;;;32.19;100.00;100173.31;4991692;28;20043;-84
2023/08/02 10:39:56;;;;;;;24.95;23.05;;;;;;;33.03;100.00;100172.38;4998007;28;20129;-83
2023/08/02 10:42:25;;;;;;;26.38;24.48;;;;;;;31.78;100.00;100167.44;4993809;28;20054;-83
2023/08/02 10:45:14;;;;;;;25.52;23.52;;;;;;;31.83;100.00;100156.13;4999217;28;20050;-84
2023/08/02 10:47:43;;;;;;;26.65;24.67;;;;;;;32.37;100.00;100175.19;4992863;28;20508;-88
2023/08/02 10:50:45;;;;;;;27.92;25.83;;;;;;;33.15;100.00;100158.38;4995714;28;20057;-90
2023/08/02 10:53:58;;;;;;;27.08;25.08;;;;;;;32.81;100.00;100179.47;4984460;28;20047;-87
2023/08/02 10:57:05;;;;;;;24.75;22.77;;;;;;;33.09;92.28;100176.38;4994583;28;20051;-89
2023/08/02 10:59:38;;;;;;;25.50;23.50;;;;;;;33.88;79.89;100178.16;4997175;28;20076;-83
2023/08/02 11:02:08;;;;;;;23.65;21.67;;;;;;;31.09;100.00;100175.38;4995647;28;20443;-86
2023/08/02 11:04:37;;;;;;;25.45;23.25;;;;;;;32.61;89.91;100167.78;4998430;28;20096;-83
2023/08/02 11:07:16;;;;;;;25.23;23.33;;;;;;;32.64;100.00;100169.78;4996193;28;20042;-83
2023/08/02 11:09:44;;;;;;;52.33;49.45;;;;;;;31.75;100.00;100160.72;4995482;28;20045;-83
2023/08/02 11:12:11;;;;;;;50.72;47.55;;;;;;;33.51;84.92;100167.91;4998794;28;20049;-83
2023/08/02 11:14:39;;;;;;;45.03;42.03;;;;;;;33.37;90.51;100159.44;4993776;28;20125;-84
2023/08/02 11:17:07;;;;;;;47.58;44.83;;;;;;;32.92;91.89;100168.63;4997574;28;20046;-83
2023/08/02 11:19:36;;;;;;;46.67;43.58;;;;;;;33.47;84.66;100155.28;4996864;28;20050;-83
2023/08/02 11:22:03;;;;;;;43.50;40.58;;;;;;;34.07;78.42;100159.88;4996611;28;20046;-84
2023/08/02 11:24:43;;;;;;;43.60;40.60;;;;;;;33.16;89.12;100164.69;4998641;28;20085;-84
2023/08/02 11:27:10;;;;;;;29.05;26.77;;;;;;;31.89;100.00;100162.91;4997309;28;20053;-84
2023/08/02 11:29:37;;;;;;;26.88;24.83;;;;;;;33.12;75.48;100155.59;4994531;28;20073;-83
2023/08/02 11:32:05;;;;;;;28.58;26.48;;;;;;;33.28;79.19;100151.50;4992447;28;20042;-84
2023/08/02 11:34:39;;;;;;;40.53;37.55;;;;;;;33.20;70.48;100155.31;4996277;28;20046;-84
2023/08/02 11:37:06;;;;;;;39.90;37.50;;;;;;;32.85;90.13;100147.31;4995206;28;20050;-83
2023/08/02 11:39:34;;;;;;;29.45;27.42;;;;;;;33.04;87.58;100151.94;4997308;28;20053;-84
2023/08/02 11:42:02;;;;;;;29.35;26.98;;;;;;;33.69;71.70;100145.31;4994028;28;20510;-84
2023/08/02 11:44:29;;;;;;;28.50;26.50;;;;;;;33.01;70.03;100156.25;4997153;28;20050;-84
2023/08/02 11:46:58;;;;;;;44.30;41.42;;;;;;;32.96;77.06;100150.25;4990968;28;20488;-83
2023/08/02 11:49:25;;;;;;;42.20;39.60;;;;;;;34.03;70.44;100159.88;4995047;28;20038;-84
2023/08/02 11:51:53;;;;;;;47.13;44.17;;;;;;;33.68;70.92;100149.25;4996100;28;20060;-84
2023/08/02 11:54:20;;;;;;;43.22;40.55;;;;;;;33.38;69.99;100152.81;4995867;28;20503;-84
2023/08/02 11:56:48;;;;;;;49.90;46.58;;;;;;;33.77;73.77;100158.00;4996272;28;20046;-85
2023/08/02 11:59:15;;;;;;;48.88;45.97;;;;;;;33.91;67.29;100143.56;4992834;28;20042;-83
2023/08/02 12:01:42;;;;;;;27.15;24.85;;;;;;;33.77;68.44;100149.75;4993497;28;20423;-86
2023/08/02 12:04:10;;;;;;;25.42;23.42;;;;;;;33.39;77.82;100145.34;4997659;28;20304;-84
2023/08/02 12:06:49;;;;;;;24.67;22.70;;;;;;;33.67;75.56;100144.91;4996137;28;20435;-84
2023/08/02 12:09:18;;;;;;;43.67;40.97;;;;;;;33.29;75.30;100133.03;4992796;28;20042;-90